createdAt,value
2022-10-22T00:00:06.051Z,2.12
2022-10-22T00:10:08.572Z,2.21
2022-10-22T00:20:10.537Z,2.33
2022-10-22T00:30:12.649Z,2.35
2022-10-22T00:40:14.494Z,2.44
2022-10-22T00:50:19.226Z,2.50
2022-10-22T01:00:20.890Z,2.51
2022-10-22T01:10:32.223Z,2.53
2022-10-22T01:20:36.936Z,2.55
2022-10-22T01:30:39.552Z,2.60
2022-10-22T01:40:41.856Z,2.67
2022-10-22T01:50:43.447Z,2.68
2022-10-22T02:00:50.216Z,2.65
2022-10-22T02:10:52.880Z,2.62
2022-10-22T02:20:54.782Z,2.58
2022-10-22T02:30:58.943Z,2.56
2022-10-22T02:41:00.822Z,2.47
2022-10-22T02:51:02.397Z,2.54
2022-10-22T03:01:04.170Z,2.60
2022-10-22T03:11:05.966Z,2.73
2022-10-22T03:21:13.816Z,2.68
2022-10-22T03:31:15.593Z,2.63
2022-10-22T03:41:17.326Z,2.52
2022-10-22T03:51:18.914Z,2.82
2022-10-22T04:01:20.527Z,2.87
2022-10-22T04:11:22.296Z,2.75
2022-10-22T04:21:23.891Z,2.78
2022-10-22T04:31:26.333Z,2.86
2022-10-22T04:41:29.585Z,2.90
2022-10-22T04:51:31.285Z,2.95
2022-10-22T05:01:40.122Z,2.96
2022-10-22T05:11:49.142Z,3.10
2022-10-22T05:21:51.743Z,3.30
2022-10-22T05:31:53.536Z,3.41
2022-10-22T05:41:55.140Z,3.59
2022-10-22T05:51:56.734Z,3.69
2022-10-22T06:01:58.355Z,3.87
2022-10-22T06:12:00.470Z,4.40
2022-10-22T06:22:02.068Z,5.50
2022-10-22T06:32:03.721Z,6.54
2022-10-22T06:42:05.423Z,7.09
2022-10-22T06:52:07.043Z,7.35
2022-10-22T07:02:09.424Z,7.74
2022-10-22T07:12:12.353Z,7.87
2022-10-22T07:22:14.073Z,7.74
2022-10-22T07:32:15.692Z,7.63
2022-10-22T07:42:17.457Z,7.74
2022-10-22T07:52:19.107Z,7.61
2022-10-22T08:02:20.721Z,7.66
2022-10-22T08:12:22.322Z,7.41
2022-10-22T08:22:23.955Z,7.64
2022-10-22T08:42:33.099Z,8.00
2022-10-22T08:52:36.709Z,8.07
2022-10-22T09:02:47.648Z,7.78
2022-10-22T09:12:49.265Z,8.04
2022-10-22T09:22:56.676Z,8.27
2022-10-22T09:33:03.014Z,8.63
2022-10-22T09:43:04.549Z,8.93
2022-10-22T09:53:32.263Z,9.10
2022-10-22T10:03:33.969Z,9.33
2022-10-22T10:13:46.383Z,9.49
2022-10-22T10:24:00.307Z,9.67
2022-10-22T10:34:10.729Z,9.68
2022-10-22T10:44:37.317Z,9.51
2022-10-22T10:54:57.522Z,9.68
2022-10-22T11:05:17.990Z,9.35
2022-10-22T11:15:27.152Z,9.95
2022-10-22T11:25:30.842Z,10.84
2022-10-22T11:35:38.820Z,11.61
2022-10-22T11:45:41.719Z,12.04
2022-10-22T11:55:51.646Z,11.41
2022-10-22T12:06:05.737Z,11.96
2022-10-22T12:16:14.197Z,13.76
2022-10-22T12:26:23.873Z,14.08
2022-10-22T12:36:29.398Z,13.26
2022-10-22T12:46:32.919Z,13.20
2022-10-22T12:56:36.372Z,12.32
2022-10-22T13:06:38.043Z,11.82
2022-10-22T13:16:39.962Z,11.88
2022-10-22T13:26:41.530Z,11.49
2022-10-22T13:36:43.223Z,11.28
2022-10-22T13:46:45.584Z,10.97
2022-10-22T13:56:48.334Z,10.98
2022-10-22T14:06:50.457Z,11.09
2022-10-22T14:16:54.092Z,11.38
2022-10-22T14:26:55.710Z,11.27
2022-10-22T14:36:57.372Z,11.09
2022-10-22T14:46:59.231Z,10.73
2022-10-22T14:57:01.623Z,10.29
2022-10-22T15:07:03.213Z,9.99
2022-10-22T15:17:04.837Z,9.63
2022-10-22T15:27:06.824Z,9.31
2022-10-22T15:37:09.799Z,9.08
2022-10-22T15:47:11.643Z,8.87
2022-10-22T15:57:13.248Z,8.65
2022-10-22T16:07:14.857Z,8.29
2022-10-22T16:17:17.009Z,7.92
2022-10-22T16:27:18.685Z,7.65
2022-10-22T16:37:20.322Z,7.38
2022-10-22T16:47:21.999Z,7.22
2022-10-22T16:57:23.966Z,6.97
2022-10-22T17:07:25.596Z,7.10
2022-10-22T17:17:27.205Z,7.00
2022-10-22T17:27:28.906Z,7.09
2022-10-22T17:37:30.496Z,7.17
2022-10-22T17:47:32.092Z,7.24
2022-10-22T17:57:33.679Z,7.46
2022-10-22T18:07:35.315Z,7.59
2022-10-22T18:17:39.569Z,7.66
2022-10-22T18:27:41.660Z,7.47
2022-10-22T18:37:43.681Z,7.65
2022-10-22T18:47:45.721Z,7.94
2022-10-22T18:57:47.446Z,8.11
2022-10-22T19:07:49.882Z,8.24
2022-10-22T19:17:51.427Z,8.27
2022-10-22T19:27:53.093Z,8.36
2022-10-22T19:37:54.874Z,8.55
2022-10-22T19:47:56.551Z,8.55
2022-10-22T19:57:58.223Z,8.48
2022-10-22T20:07:59.891Z,8.31
2022-10-22T20:18:01.655Z,8.33
2022-10-22T20:28:03.288Z,8.65
2022-10-22T20:38:05.417Z,8.85
2022-10-22T20:48:07.404Z,8.71
2022-10-22T20:58:09.182Z,8.78
2022-10-22T21:08:17.271Z,8.83
2022-10-22T21:18:18.867Z,8.75
2022-10-22T21:28:20.569Z,8.83
2022-10-22T21:38:23.495Z,8.85
2022-10-22T21:48:25.261Z,8.89
2022-10-22T21:58:26.975Z,8.80
2022-10-22T22:08:29.043Z,8.77
2022-10-22T22:18:30.696Z,8.76
2022-10-22T22:28:32.455Z,8.68
2022-10-22T22:38:34.176Z,8.70
2022-10-22T22:48:35.764Z,8.66
2022-10-22T22:58:38.788Z,8.65
2022-10-22T23:08:40.617Z,8.62
2022-10-22T23:18:42.456Z,8.51
2022-10-22T23:28:44.156Z,8.48
2022-10-22T23:38:45.763Z,8.45
2022-10-22T23:48:47.387Z,8.46
2022-10-22T23:58:51.616Z,8.39
